sensor_id;sensor_type;location;lat;lon;timestamp;temperature;humidity
15638;DHT22;26604;53.596;10.042;2022-10-17T00:00:09;20.80;1.00
15638;DHT22;26604;53.596;10.042;2022-10-17T00:02:36;20.80;1.00
15638;DHT22;26604;53.596;10.042;2022-10-17T00:05:04;20.80;1.00
15638;DHT22;26604;53.596;10.042;2022-10-17T00:07:32;20.80;1.00
15638;DHT22;26604;53.596;10.042;2022-10-17T00:09:59;20.80;1.00
15638;DHT22;26604;53.596;10.042;2022-10-17T00:12:26;20.80;1.00
15638;DHT22;26604;53.596;10.042;2022-10-17T00:14:53;20.80;1.00
15638;DHT22;26604;53.596;10.042;2022-10-17T00:17:19;20.80;1.00
15638;DHT22;26604;53.596;10.042;2022-10-17T00:19:46;20.80;1.00
15638;DHT22;26604;53.596;10.042;2022-10-17T00:22:13;20.80;1.00
15638;DHT22;26604;53.596;10.042;2022-10-17T00:24:41;20.80;1.00
15638;DHT22;26604;53.596;10.042;2022-10-17T00:27:08;20.80;1.00
15638;DHT22;26604;53.596;10.042;2022-10-17T00:29:35;20.80;1.00
15638;DHT22;26604;53.596;10.042;2022-10-17T00:32:02;20.80;1.00
15638;DHT22;26604;53.596;10.042;2022-10-17T00:34:29;20.80;1.00
15638;DHT22;26604;53.596;10.042;2022-10-17T00:36:56;20.80;1.00
15638;DHT22;26604;53.596;10.042;2022-10-17T00:39:23;20.80;1.00
15638;DHT22;26604;53.596;10.042;2022-10-17T00:41:51;20.80;1.00
15638;DHT22;26604;53.596;10.042;2022-10-17T00:47:22;20.80;1.00
15638;DHT22;26604;53.596;10.042;2022-10-17T00:49:49;20.80;1.00
15638;DHT22;26604;53.596;10.042;2022-10-17T00:52:18;20.80;1.00
15638;DHT22;26604;53.596;10.042;2022-10-17T00:54:48;20.80;1.00
15638;DHT22;26604;53.596;10.042;2022-10-17T00:57:18;20.80;1.00
15638;DHT22;26604;53.596;10.042;2022-10-17T00:59:49;20.70;1.00
15638;DHT22;26604;53.596;10.042;2022-10-17T01:02:18;20.80;1.00
15638;DHT22;26604;53.596;10.042;2022-10-17T01:04:48;20.80;1.00
15638;DHT22;26604;53.596;10.042;2022-10-17T01:07:15;20.70;1.00
15638;DHT22;26604;53.596;10.042;2022-10-17T01:09:44;20.70;1.00
15638;DHT22;26604;53.596;10.042;2022-10-17T01:12:17;20.70;1.00
15638;DHT22;26604;53.596;10.042;2022-10-17T01:14:54;20.70;1.00
15638;DHT22;26604;53.596;10.042;2022-10-17T01:17:28;20.80;1.00
15638;DHT22;26604;53.596;10.042;2022-10-17T01:25:55;20.70;1.00
15638;DHT22;26604;53.596;10.042;2022-10-17T01:28:47;20.70;1.00
15638;DHT22;26604;53.596;10.042;2022-10-17T01:31:21;20.70;1.00
15638;DHT22;26604;53.596;10.042;2022-10-17T01:33:57;20.70;1.00
15638;DHT22;26604;53.596;10.042;2022-10-17T01:36:36;20.70;1.00
15638;DHT22;26604;53.596;10.042;2022-10-17T01:39:14;20.70;1.00
15638;DHT22;26604;53.596;10.042;2022-10-17T01:41:46;20.70;1.00
15638;DHT22;26604;53.596;10.042;2022-10-17T01:44:18;20.70;1.00
15638;DHT22;26604;53.596;10.042;2022-10-17T01:46:49;20.70;1.00
15638;DHT22;26604;53.596;10.042;2022-10-17T01:49:20;20.70;1.00
15638;DHT22;26604;53.596;10.042;2022-10-17T01:51:54;20.70;1.00
15638;DHT22;26604;53.596;10.042;2022-10-17T01:54:24;20.70;1.00
15638;DHT22;26604;53.596;10.042;2022-10-17T01:56:57;20.70;1.00
15638;DHT22;26604;53.596;10.042;2022-10-17T01:59:27;20.70;1.00
15638;DHT22;26604;53.596;10.042;2022-10-17T02:01:57;20.70;1.00
15638;DHT22;26604;53.596;10.042;2022-10-17T02:04:25;20.70;1.00
15638;DHT22;26604;53.596;10.042;2022-10-17T02:06:51;20.70;1.00
15638;DHT22;26604;53.596;10.042;2022-10-17T02:09:20;20.70;1.00
15638;DHT22;26604;53.596;10.042;2022-10-17T02:12:08;20.70;1.00
15638;DHT22;26604;53.596;10.042;2022-10-17T02:14:46;20.70;1.00
15638;DHT22;26604;53.596;10.042;2022-10-17T02:17:26;20.70;1.00
15638;DHT22;26604;53.596;10.042;2022-10-17T02:20:00;20.70;1.00
15638;DHT22;26604;53.596;10.042;2022-10-17T02:22:36;20.70;1.00
15638;DHT22;26604;53.596;10.042;2022-10-17T02:25:10;20.70;1.00
15638;DHT22;26604;53.596;10.042;2022-10-17T02:27:42;20.70;1.00
15638;DHT22;26604;53.596;10.042;2022-10-17T02:30:12;20.70;1.00
15638;DHT22;26604;53.596;10.042;2022-10-17T02:32:45;20.70;1.00
15638;DHT22;26604;53.596;10.042;2022-10-17T02:35:17;20.70;1.00
15638;DHT22;26604;53.596;10.042;2022-10-17T02:37:46;20.70;1.00
15638;DHT22;26604;53.596;10.042;2022-10-17T02:40:15;20.70;1.00
15638;DHT22;26604;53.596;10.042;2022-10-17T02:42:45;20.70;1.00
15638;DHT22;26604;53.596;10.042;2022-10-17T02:45:13;20.70;1.00
15638;DHT22;26604;53.596;10.042;2022-10-17T02:47:48;20.70;1.00
15638;DHT22;26604;53.596;10.042;2022-10-17T02:50:17;20.70;1.00
15638;DHT22;26604;53.596;10.042;2022-10-17T02:52:47;20.70;1.00
15638;DHT22;26604;53.596;10.042;2022-10-17T02:55:19;20.70;1.00
15638;DHT22;26604;53.596;10.042;2022-10-17T02:57:51;20.70;1.00
15638;DHT22;26604;53.596;10.042;2022-10-17T03:00:20;20.70;1.00
15638;DHT22;26604;53.596;10.042;2022-10-17T03:02:50;20.70;1.00
15638;DHT22;26604;53.596;10.042;2022-10-17T03:05:19;20.70;1.00
15638;DHT22;26604;53.596;10.042;2022-10-17T03:07:46;20.70;1.00
15638;DHT22;26604;53.596;10.042;2022-10-17T03:10:13;20.70;1.00
15638;DHT22;26604;53.596;10.042;2022-10-17T03:12:40;20.70;1.00
15638;DHT22;26604;53.596;10.042;2022-10-17T03:15:08;20.70;1.00
15638;DHT22;26604;53.596;10.042;2022-10-17T03:17:36;20.70;1.00
15638;DHT22;26604;53.596;10.042;2022-10-17T03:20:05;20.70;1.00
15638;DHT22;26604;53.596;10.042;2022-10-17T03:22:33;20.70;1.00
15638;DHT22;26604;53.596;10.042;2022-10-17T03:24:59;20.70;1.00
15638;DHT22;26604;53.596;10.042;2022-10-17T03:27:26;20.70;1.00
15638;DHT22;26604;53.596;10.042;2022-10-17T03:29:53;20.70;1.00
15638;DHT22;26604;53.596;10.042;2022-10-17T03:32:20;20.70;1.00
15638;DHT22;26604;53.596;10.042;2022-10-17T03:34:47;20.70;1.00
15638;DHT22;26604;53.596;10.042;2022-10-17T03:37:15;20.70;1.00
15638;DHT22;26604;53.596;10.042;2022-10-17T03:39:42;20.70;1.00
15638;DHT22;26604;53.596;10.042;2022-10-17T03:42:08;20.70;1.00
15638;DHT22;26604;53.596;10.042;2022-10-17T03:44:35;20.70;1.00
15638;DHT22;26604;53.596;10.042;2022-10-17T03:47:02;20.70;1.00
15638;DHT22;26604;53.596;10.042;2022-10-17T03:49:29;20.70;1.00
15638;DHT22;26604;53.596;10.042;2022-10-17T03:51:56;20.70;1.00
15638;DHT22;26604;53.596;10.042;2022-10-17T03:54:24;20.70;1.00
15638;DHT22;26604;53.596;10.042;2022-10-17T03:56:51;20.70;1.00
15638;DHT22;26604;53.596;10.042;2022-10-17T03:59:18;20.70;1.00
15638;DHT22;26604;53.596;10.042;2022-10-17T04:01:44;20.70;1.00
15638;DHT22;26604;53.596;10.042;2022-10-17T04:04:11;20.70;1.00
15638;DHT22;26604;53.596;10.042;2022-10-17T04:06:38;20.70;1.00
15638;DHT22;26604;53.596;10.042;2022-10-17T04:09:05;20.70;1.00
15638;DHT22;26604;53.596;10.042;2022-10-17T04:11:34;20.70;1.00
15638;DHT22;26604;53.596;10.042;2022-10-17T04:14:01;20.70;1.00
15638;DHT22;26604;53.596;10.042;2022-10-17T04:16:28;20.70;1.00
15638;DHT22;26604;53.596;10.042;2022-10-17T04:18:56;20.70;1.00
15638;DHT22;26604;53.596;10.042;2022-10-17T04:21:25;20.70;1.00
15638;DHT22;26604;53.596;10.042;2022-10-17T04:23:52;20.70;1.00
15638;DHT22;26604;53.596;10.042;2022-10-17T04:26:20;20.70;1.00
15638;DHT22;26604;53.596;10.042;2022-10-17T04:28:48;20.70;1.00
15638;DHT22;26604;53.596;10.042;2022-10-17T04:31:16;20.70;1.00
15638;DHT22;26604;53.596;10.042;2022-10-17T04:33:45;20.70;1.00
15638;DHT22;26604;53.596;10.042;2022-10-17T04:36:14;20.70;1.00
15638;DHT22;26604;53.596;10.042;2022-10-17T04:38:41;20.70;1.00
15638;DHT22;26604;53.596;10.042;2022-10-17T04:41:10;20.70;1.00
15638;DHT22;26604;53.596;10.042;2022-10-17T04:43:38;20.70;1.00
15638;DHT22;26604;53.596;10.042;2022-10-17T04:46:08;20.70;1.00
15638;DHT22;26604;53.596;10.042;2022-10-17T04:48:35;20.70;1.00
15638;DHT22;26604;53.596;10.042;2022-10-17T04:51:04;20.70;1.00
15638;DHT22;26604;53.596;10.042;2022-10-17T04:53:32;20.70;1.00
15638;DHT22;26604;53.596;10.042;2022-10-17T04:56:00;20.70;1.00
15638;DHT22;26604;53.596;10.042;2022-10-17T04:58:28;20.70;1.00
15638;DHT22;26604;53.596;10.042;2022-10-17T05:00:55;20.70;1.00
15638;DHT22;26604;53.596;10.042;2022-10-17T05:03:23;20.70;1.00
15638;DHT22;26604;53.596;10.042;2022-10-17T05:05:50;20.70;1.00
15638;DHT22;26604;53.596;10.042;2022-10-17T05:08:17;20.70;1.00
15638;DHT22;26604;53.596;10.042;2022-10-17T05:10:44;20.70;1.00
15638;DHT22;26604;53.596;10.042;2022-10-17T05:13:11;20.70;1.00
15638;DHT22;26604;53.596;10.042;2022-10-17T05:15:38;20.70;1.00
15638;DHT22;26604;53.596;10.042;2022-10-17T05:18:06;20.70;1.00
15638;DHT22;26604;53.596;10.042;2022-10-17T05:20:34;20.60;1.00
15638;DHT22;26604;53.596;10.042;2022-10-17T05:23:02;20.60;1.00
15638;DHT22;26604;53.596;10.042;2022-10-17T05:25:28;20.60;1.00
15638;DHT22;26604;53.596;10.042;2022-10-17T05:27:55;20.60;1.00
15638;DHT22;26604;53.596;10.042;2022-10-17T05:30:22;20.60;1.00
15638;DHT22;26604;53.596;10.042;2022-10-17T05:32:51;20.60;1.00
15638;DHT22;26604;53.596;10.042;2022-10-17T05:35:19;20.60;1.00
15638;DHT22;26604;53.596;10.042;2022-10-17T05:37:47;20.60;1.00
15638;DHT22;26604;53.596;10.042;2022-10-17T05:40:14;20.60;1.00
15638;DHT22;26604;53.596;10.042;2022-10-17T05:42:45;20.60;1.00
15638;DHT22;26604;53.596;10.042;2022-10-17T05:45:12;20.60;1.00
15638;DHT22;26604;53.596;10.042;2022-10-17T05:47:39;20.70;1.00
15638;DHT22;26604;53.596;10.042;2022-10-17T05:50:07;20.50;1.00
15638;DHT22;26604;53.596;10.042;2022-10-17T05:52:34;20.80;1.00
15638;DHT22;26604;53.596;10.042;2022-10-17T05:55:02;20.80;1.00
15638;DHT22;26604;53.596;10.042;2022-10-17T05:57:29;20.90;1.00
15638;DHT22;26604;53.596;10.042;2022-10-17T05:59:56;20.90;1.00
15638;DHT22;26604;53.596;10.042;2022-10-17T06:02:23;21.00;1.00
15638;DHT22;26604;53.596;10.042;2022-10-17T06:04:50;21.00;1.00
15638;DHT22;26604;53.596;10.042;2022-10-17T06:07:17;21.00;1.00
15638;DHT22;26604;53.596;10.042;2022-10-17T06:09:44;21.00;1.00
15638;DHT22;26604;53.596;10.042;2022-10-17T06:12:12;20.90;1.00
15638;DHT22;26604;53.596;10.042;2022-10-17T06:14:39;20.90;1.00
15638;DHT22;26604;53.596;10.042;2022-10-17T06:17:06;20.90;1.00
15638;DHT22;26604;53.596;10.042;2022-10-17T06:19:32;21.20;1.00
15638;DHT22;26604;53.596;10.042;2022-10-17T06:22:00;20.90;1.00
15638;DHT22;26604;53.596;10.042;2022-10-17T06:24:27;20.90;1.00
15638;DHT22;26604;53.596;10.042;2022-10-17T06:26:53;20.90;1.00
15638;DHT22;26604;53.596;10.042;2022-10-17T06:29:22;20.80;1.00
15638;DHT22;26604;53.596;10.042;2022-10-17T06:31:48;20.80;1.00
15638;DHT22;26604;53.596;10.042;2022-10-17T06:34:15;20.80;1.00
15638;DHT22;26604;53.596;10.042;2022-10-17T06:36:42;20.80;1.00
15638;DHT22;26604;53.596;10.042;2022-10-17T06:39:09;20.80;1.00
15638;DHT22;26604;53.596;10.042;2022-10-17T06:41:36;20.80;1.00
15638;DHT22;26604;53.596;10.042;2022-10-17T06:44:04;20.80;1.00
15638;DHT22;26604;53.596;10.042;2022-10-17T06:46:37;20.80;1.00
15638;DHT22;26604;53.596;10.042;2022-10-17T06:49:04;20.80;1.00
15638;DHT22;26604;53.596;10.042;2022-10-17T06:51:34;20.80;1.00
15638;DHT22;26604;53.596;10.042;2022-10-17T06:54:02;20.80;1.00
15638;DHT22;26604;53.596;10.042;2022-10-17T06:56:29;20.80;1.00
15638;DHT22;26604;53.596;10.042;2022-10-17T06:58:56;20.90;1.00
15638;DHT22;26604;53.596;10.042;2022-10-17T07:01:23;20.80;1.00
15638;DHT22;26604;53.596;10.042;2022-10-17T07:03:51;20.80;1.00
15638;DHT22;26604;53.596;10.042;2022-10-17T07:06:18;20.80;1.00
15638;DHT22;26604;53.596;10.042;2022-10-17T07:08:45;20.80;1.00
15638;DHT22;26604;53.596;10.042;2022-10-17T07:11:13;20.80;1.00
15638;DHT22;26604;53.596;10.042;2022-10-17T07:13:41;20.80;1.00
15638;DHT22;26604;53.596;10.042;2022-10-17T07:16:08;20.80;1.00
15638;DHT22;26604;53.596;10.042;2022-10-17T07:18:36;20.80;1.00
15638;DHT22;26604;53.596;10.042;2022-10-17T07:21:05;20.80;1.00
15638;DHT22;26604;53.596;10.042;2022-10-17T07:23:33;20.80;1.00
15638;DHT22;26604;53.596;10.042;2022-10-17T07:26:02;20.80;1.00
15638;DHT22;26604;53.596;10.042;2022-10-17T07:28:31;20.80;1.00
15638;DHT22;26604;53.596;10.042;2022-10-17T07:31:02;20.80;1.00
15638;DHT22;26604;53.596;10.042;2022-10-17T07:33:30;20.80;1.00
15638;DHT22;26604;53.596;10.042;2022-10-17T07:35:58;20.80;1.00
15638;DHT22;26604;53.596;10.042;2022-10-17T07:38:26;20.80;1.00
15638;DHT22;26604;53.596;10.042;2022-10-17T07:40:54;20.80;1.00
15638;DHT22;26604;53.596;10.042;2022-10-17T07:43:21;20.80;1.00
15638;DHT22;26604;53.596;10.042;2022-10-17T07:45:49;20.80;1.00
15638;DHT22;26604;53.596;10.042;2022-10-17T07:48:16;20.80;1.00
15638;DHT22;26604;53.596;10.042;2022-10-17T07:50:43;20.80;1.00
15638;DHT22;26604;53.596;10.042;2022-10-17T07:53:10;20.80;1.00
15638;DHT22;26604;53.596;10.042;2022-10-17T07:55:38;20.80;1.00
15638;DHT22;26604;53.596;10.042;2022-10-17T07:58:05;20.80;1.00
15638;DHT22;26604;53.596;10.042;2022-10-17T08:00:32;20.80;1.00
15638;DHT22;26604;53.596;10.042;2022-10-17T08:02:59;20.80;1.00
15638;DHT22;26604;53.596;10.042;2022-10-17T08:05:26;20.90;1.00
15638;DHT22;26604;53.596;10.042;2022-10-17T08:07:54;20.90;1.00
15638;DHT22;26604;53.596;10.042;2022-10-17T08:10:21;20.90;1.00
15638;DHT22;26604;53.596;10.042;2022-10-17T08:12:53;20.90;1.00
15638;DHT22;26604;53.596;10.042;2022-10-17T08:15:21;20.90;1.00
15638;DHT22;26604;53.596;10.042;2022-10-17T08:17:48;20.90;1.00
15638;DHT22;26604;53.596;10.042;2022-10-17T08:20:15;20.90;1.00
15638;DHT22;26604;53.596;10.042;2022-10-17T08:22:42;20.90;1.00
15638;DHT22;26604;53.596;10.042;2022-10-17T08:25:09;20.90;1.00
15638;DHT22;26604;53.596;10.042;2022-10-17T08:27:36;20.90;1.00
15638;DHT22;26604;53.596;10.042;2022-10-17T08:30:05;20.90;1.00
15638;DHT22;26604;53.596;10.042;2022-10-17T08:32:32;20.90;1.00
15638;DHT22;26604;53.596;10.042;2022-10-17T08:35:11;20.90;1.00
15638;DHT22;26604;53.596;10.042;2022-10-17T08:37:39;20.90;1.00
15638;DHT22;26604;53.596;10.042;2022-10-17T08:40:08;20.90;1.00
15638;DHT22;26604;53.596;10.042;2022-10-17T08:42:54;20.90;1.00
15638;DHT22;26604;53.596;10.042;2022-10-17T08:45:28;20.90;1.00
15638;DHT22;26604;53.596;10.042;2022-10-17T08:47:58;20.90;1.00
15638;DHT22;26604;53.596;10.042;2022-10-17T08:50:31;21.00;1.00
15638;DHT22;26604;53.596;10.042;2022-10-17T08:53:05;21.10;1.00
15638;DHT22;26604;53.596;10.042;2022-10-17T08:55:36;21.10;1.00
15638;DHT22;26604;53.596;10.042;2022-10-17T08:58:11;21.10;1.00
15638;DHT22;26604;53.596;10.042;2022-10-17T09:00:42;21.10;1.00
15638;DHT22;26604;53.596;10.042;2022-10-17T09:03:27;21.10;1.00
15638;DHT22;26604;53.596;10.042;2022-10-17T09:06:09;21.10;1.00
15638;DHT22;26604;53.596;10.042;2022-10-17T09:08:43;21.10;1.00
15638;DHT22;26604;53.596;10.042;2022-10-17T09:11:19;21.10;1.00
15638;DHT22;26604;53.596;10.042;2022-10-17T09:14:00;21.10;1.00
15638;DHT22;26604;53.596;10.042;2022-10-17T09:16:43;21.10;1.00
15638;DHT22;26604;53.596;10.042;2022-10-17T09:19:18;21.10;1.00
15638;DHT22;26604;53.596;10.042;2022-10-17T09:21:49;21.10;1.00
15638;DHT22;26604;53.596;10.042;2022-10-17T09:24:21;21.10;1.00
15638;DHT22;26604;53.596;10.042;2022-10-17T09:26:50;21.10;1.00
15638;DHT22;26604;53.596;10.042;2022-10-17T09:29:21;21.10;1.00
15638;DHT22;26604;53.596;10.042;2022-10-17T09:31:53;21.10;1.00
15638;DHT22;26604;53.596;10.042;2022-10-17T09:34:24;21.10;1.00
15638;DHT22;26604;53.596;10.042;2022-10-17T09:36:53;21.10;1.00
15638;DHT22;26604;53.596;10.042;2022-10-17T09:39:22;21.20;1.00
15638;DHT22;26604;53.596;10.042;2022-10-17T09:41:53;21.20;1.00
15638;DHT22;26604;53.596;10.042;2022-10-17T09:44:21;21.20;1.00
15638;DHT22;26604;53.596;10.042;2022-10-17T09:47:09;21.10;1.00
15638;DHT22;26604;53.596;10.042;2022-10-17T09:49:40;21.10;1.00
15638;DHT22;26604;53.596;10.042;2022-10-17T09:52:11;21.10;1.00
15638;DHT22;26604;53.596;10.042;2022-10-17T09:54:42;21.10;1.00
15638;DHT22;26604;53.596;10.042;2022-10-17T09:57:11;21.10;1.00
15638;DHT22;26604;53.596;10.042;2022-10-17T09:59:41;21.10;1.00
15638;DHT22;26604;53.596;10.042;2022-10-17T10:02:16;21.10;1.00
15638;DHT22;26604;53.596;10.042;2022-10-17T10:04:52;21.10;1.00
15638;DHT22;26604;53.596;10.042;2022-10-17T10:07:19;21.10;1.00
15638;DHT22;26604;53.596;10.042;2022-10-17T10:09:47;21.10;1.00
15638;DHT22;26604;53.596;10.042;2022-10-17T10:12:17;21.10;1.00
15638;DHT22;26604;53.596;10.042;2022-10-17T10:14:45;21.10;1.00
15638;DHT22;26604;53.596;10.042;2022-10-17T10:17:29;21.00;1.00
15638;DHT22;26604;53.596;10.042;2022-10-17T10:19:59;21.00;1.00
15638;DHT22;26604;53.596;10.042;2022-10-17T10:22:26;21.00;1.00
15638;DHT22;26604;53.596;10.042;2022-10-17T10:25:07;21.00;1.00
15638;DHT22;26604;53.596;10.042;2022-10-17T10:27:34;21.00;1.00
15638;DHT22;26604;53.596;10.042;2022-10-17T10:30:02;21.00;1.00
15638;DHT22;26604;53.596;10.042;2022-10-17T10:32:33;21.00;1.00
15638;DHT22;26604;53.596;10.042;2022-10-17T10:35:02;21.00;1.00
15638;DHT22;26604;53.596;10.042;2022-10-17T10:37:34;21.00;1.00
15638;DHT22;26604;53.596;10.042;2022-10-17T10:40:04;21.00;1.00
15638;DHT22;26604;53.596;10.042;2022-10-17T10:42:33;21.00;1.00
15638;DHT22;26604;53.596;10.042;2022-10-17T10:45:12;21.00;1.00
15638;DHT22;26604;53.596;10.042;2022-10-17T10:47:49;21.00;1.00
15638;DHT22;26604;53.596;10.042;2022-10-17T10:50:23;21.00;1.00
15638;DHT22;26604;53.596;10.042;2022-10-17T10:52:56;21.00;1.00
15638;DHT22;26604;53.596;10.042;2022-10-17T10:55:28;21.00;1.00
15638;DHT22;26604;53.596;10.042;2022-10-17T10:58:00;21.00;1.00
15638;DHT22;26604;53.596;10.042;2022-10-17T11:00:31;21.00;1.00
15638;DHT22;26604;53.596;10.042;2022-10-17T11:03:05;21.00;1.00
15638;DHT22;26604;53.596;10.042;2022-10-17T11:05:40;21.00;1.00
15638;DHT22;26604;53.596;10.042;2022-10-17T11:08:15;21.00;1.00
15638;DHT22;26604;53.596;10.042;2022-10-17T11:10:56;21.10;1.00
15638;DHT22;26604;53.596;10.042;2022-10-17T11:13:27;21.00;1.00
15638;DHT22;26604;53.596;10.042;2022-10-17T11:16:14;21.10;1.00
15638;DHT22;26604;53.596;10.042;2022-10-17T11:18:47;21.10;1.00
15638;DHT22;26604;53.596;10.042;2022-10-17T11:21:22;21.10;1.00
15638;DHT22;26604;53.596;10.042;2022-10-17T11:23:55;21.10;1.00
15638;DHT22;26604;53.596;10.042;2022-10-17T11:26:27;21.10;1.00
15638;DHT22;26604;53.596;10.042;2022-10-17T11:28:57;21.10;1.00
15638;DHT22;26604;53.596;10.042;2022-10-17T11:31:29;21.10;1.00
15638;DHT22;26604;53.596;10.042;2022-10-17T11:33:59;21.10;1.00
15638;DHT22;26604;53.596;10.042;2022-10-17T11:36:29;21.10;1.00
15638;DHT22;26604;53.596;10.042;2022-10-17T11:39:00;21.10;1.00
15638;DHT22;26604;53.596;10.042;2022-10-17T11:41:32;21.10;1.00
15638;DHT22;26604;53.596;10.042;2022-10-17T11:44:06;21.10;1.00
15638;DHT22;26604;53.596;10.042;2022-10-17T11:46:39;21.10;1.00
15638;DHT22;26604;53.596;10.042;2022-10-17T11:49:11;21.10;1.00
15638;DHT22;26604;53.596;10.042;2022-10-17T11:51:43;21.10;1.00
15638;DHT22;26604;53.596;10.042;2022-10-17T11:54:13;21.10;1.00
15638;DHT22;26604;53.596;10.042;2022-10-17T11:56:52;21.10;1.00
15638;DHT22;26604;53.596;10.042;2022-10-17T11:59:52;21.10;1.00
15638;DHT22;26604;53.596;10.042;2022-10-17T12:02:30;21.10;1.00
15638;DHT22;26604;53.596;10.042;2022-10-17T12:05:08;21.10;1.00
15638;DHT22;26604;53.596;10.042;2022-10-17T12:07:47;21.00;1.00
15638;DHT22;26604;53.596;10.042;2022-10-17T12:10:23;21.00;1.00
15638;DHT22;26604;53.596;10.042;2022-10-17T12:12:53;21.00;1.00
15638;DHT22;26604;53.596;10.042;2022-10-17T12:15:27;21.00;1.00
15638;DHT22;26604;53.596;10.042;2022-10-17T12:17:55;21.00;1.00
15638;DHT22;26604;53.596;10.042;2022-10-17T12:20:34;21.00;1.00
15638;DHT22;26604;53.596;10.042;2022-10-17T12:23:16;21.00;1.00
15638;DHT22;26604;53.596;10.042;2022-10-17T12:25:49;21.00;1.00
15638;DHT22;26604;53.596;10.042;2022-10-17T12:28:25;21.00;1.00
15638;DHT22;26604;53.596;10.042;2022-10-17T12:30:58;21.00;1.00
15638;DHT22;26604;53.596;10.042;2022-10-17T12:33:33;21.00;1.00
15638;DHT22;26604;53.596;10.042;2022-10-17T12:42:48;21.00;1.00
15638;DHT22;26604;53.596;10.042;2022-10-17T12:45:44;21.00;1.00
15638;DHT22;26604;53.596;10.042;2022-10-17T12:48:11;21.00;1.00
15638;DHT22;26604;53.596;10.042;2022-10-17T12:51:01;21.00;1.00
15638;DHT22;26604;53.596;10.042;2022-10-17T12:53:35;21.00;1.00
15638;DHT22;26604;53.596;10.042;2022-10-17T12:56:04;21.00;1.00
15638;DHT22;26604;53.596;10.042;2022-10-17T12:58:33;21.00;1.00
15638;DHT22;26604;53.596;10.042;2022-10-17T13:01:01;21.00;1.00
15638;DHT22;26604;53.596;10.042;2022-10-17T13:03:31;21.00;1.00
15638;DHT22;26604;53.596;10.042;2022-10-17T13:06:01;21.00;1.00
15638;DHT22;26604;53.596;10.042;2022-10-17T13:08:30;21.00;1.00
15638;DHT22;26604;53.596;10.042;2022-10-17T13:10:59;21.00;1.00
15638;DHT22;26604;53.596;10.042;2022-10-17T13:13:37;21.00;1.00
15638;DHT22;26604;53.596;10.042;2022-10-17T13:16:06;21.00;1.00
15638;DHT22;26604;53.596;10.042;2022-10-17T13:18:34;21.00;1.00
15638;DHT22;26604;53.596;10.042;2022-10-17T13:21:03;21.00;1.00
15638;DHT22;26604;53.596;10.042;2022-10-17T13:23:33;21.00;1.00
15638;DHT22;26604;53.596;10.042;2022-10-17T13:26:14;21.00;1.00
15638;DHT22;26604;53.596;10.042;2022-10-17T13:28:48;21.00;1.00
15638;DHT22;26604;53.596;10.042;2022-10-17T13:31:28;21.00;1.00
15638;DHT22;26604;53.596;10.042;2022-10-17T13:33:57;21.00;1.00
15638;DHT22;26604;53.596;10.042;2022-10-17T13:36:25;21.00;1.00
15638;DHT22;26604;53.596;10.042;2022-10-17T13:38:53;21.00;1.00
15638;DHT22;26604;53.596;10.042;2022-10-17T13:41:24;21.00;1.00
15638;DHT22;26604;53.596;10.042;2022-10-17T13:43:52;21.00;1.00
15638;DHT22;26604;53.596;10.042;2022-10-17T13:46:27;21.00;1.00
15638;DHT22;26604;53.596;10.042;2022-10-17T13:48:55;21.00;1.00
15638;DHT22;26604;53.596;10.042;2022-10-17T13:51:23;21.00;1.00
15638;DHT22;26604;53.596;10.042;2022-10-17T13:53:50;21.00;1.00
15638;DHT22;26604;53.596;10.042;2022-10-17T13:56:19;21.00;1.00
15638;DHT22;26604;53.596;10.042;2022-10-17T13:58:48;21.00;1.00
15638;DHT22;26604;53.596;10.042;2022-10-17T14:01:17;21.00;1.00
15638;DHT22;26604;53.596;10.042;2022-10-17T14:03:45;21.00;1.00
15638;DHT22;26604;53.596;10.042;2022-10-17T14:06:16;21.00;1.00
15638;DHT22;26604;53.596;10.042;2022-10-17T14:08:56;21.00;1.00
15638;DHT22;26604;53.596;10.042;2022-10-17T14:11:29;21.00;1.00
15638;DHT22;26604;53.596;10.042;2022-10-17T14:13:58;21.00;1.00
15638;DHT22;26604;53.596;10.042;2022-10-17T14:16:32;21.00;1.00
15638;DHT22;26604;53.596;10.042;2022-10-17T14:19:00;21.00;1.00
15638;DHT22;26604;53.596;10.042;2022-10-17T14:21:26;21.00;1.00
15638;DHT22;26604;53.596;10.042;2022-10-17T14:24:13;21.00;1.00
15638;DHT22;26604;53.596;10.042;2022-10-17T14:26:48;21.00;1.00
15638;DHT22;26604;53.596;10.042;2022-10-17T14:29:21;21.00;1.00
15638;DHT22;26604;53.596;10.042;2022-10-17T14:31:57;21.00;1.00
15638;DHT22;26604;53.596;10.042;2022-10-17T14:34:32;21.00;1.00
15638;DHT22;26604;53.596;10.042;2022-10-17T14:37:00;21.00;1.00
15638;DHT22;26604;53.596;10.042;2022-10-17T14:39:28;21.00;1.00
15638;DHT22;26604;53.596;10.042;2022-10-17T14:41:55;21.00;1.00
15638;DHT22;26604;53.596;10.042;2022-10-17T14:44:25;21.00;1.00
15638;DHT22;26604;53.596;10.042;2022-10-17T14:46:57;21.00;1.00
15638;DHT22;26604;53.596;10.042;2022-10-17T14:49:34;21.00;1.00
15638;DHT22;26604;53.596;10.042;2022-10-17T14:54:54;21.00;1.00
15638;DHT22;26604;53.596;10.042;2022-10-17T14:57:25;21.00;1.00
15638;DHT22;26604;53.596;10.042;2022-10-17T14:59:53;21.00;1.00
15638;DHT22;26604;53.596;10.042;2022-10-17T15:02:22;21.00;1.00
15638;DHT22;26604;53.596;10.042;2022-10-17T15:04:49;21.00;1.00
15638;DHT22;26604;53.596;10.042;2022-10-17T15:07:16;21.10;1.00
15638;DHT22;26604;53.596;10.042;2022-10-17T15:09:45;21.10;1.00
15638;DHT22;26604;53.596;10.042;2022-10-17T15:12:14;21.10;1.00
15638;DHT22;26604;53.596;10.042;2022-10-17T15:14:42;21.10;1.00
15638;DHT22;26604;53.596;10.042;2022-10-17T15:17:12;21.10;1.00
15638;DHT22;26604;53.596;10.042;2022-10-17T15:19:41;21.10;1.00
15638;DHT22;26604;53.596;10.042;2022-10-17T15:22:08;21.00;1.00
15638;DHT22;26604;53.596;10.042;2022-10-17T15:24:35;21.00;1.00
15638;DHT22;26604;53.596;10.042;2022-10-17T15:27:02;21.00;1.00
15638;DHT22;26604;53.596;10.042;2022-10-17T15:29:29;21.00;1.00
15638;DHT22;26604;53.596;10.042;2022-10-17T15:31:56;21.00;1.00
15638;DHT22;26604;53.596;10.042;2022-10-17T15:34:23;21.00;1.00
15638;DHT22;26604;53.596;10.042;2022-10-17T15:36:52;21.00;1.00
15638;DHT22;26604;53.596;10.042;2022-10-17T15:39:19;21.00;1.00
15638;DHT22;26604;53.596;10.042;2022-10-17T15:41:46;21.00;1.00
15638;DHT22;26604;53.596;10.042;2022-10-17T15:44:13;21.10;1.00
15638;DHT22;26604;53.596;10.042;2022-10-17T15:46:41;21.10;1.00
15638;DHT22;26604;53.596;10.042;2022-10-17T15:49:11;21.10;1.00
15638;DHT22;26604;53.596;10.042;2022-10-17T15:51:39;21.00;1.00
15638;DHT22;26604;53.596;10.042;2022-10-17T15:54:07;21.00;1.00
15638;DHT22;26604;53.596;10.042;2022-10-17T15:56:36;21.00;1.00
15638;DHT22;26604;53.596;10.042;2022-10-17T15:59:04;21.00;1.00
15638;DHT22;26604;53.596;10.042;2022-10-17T16:01:32;21.00;1.00
15638;DHT22;26604;53.596;10.042;2022-10-17T16:03:59;21.00;1.00
15638;DHT22;26604;53.596;10.042;2022-10-17T16:06:26;20.90;1.00